sensor_id;sensor_type;location;lat;lon;timestamp;pressure;altitude;pressure_sealevel;temperature;humidity
22257;BME280;11297;42.686;23.374;2022-11-09T00:01:31;95582.34;;;13.82;65.52
22257;BME280;11297;42.686;23.374;2022-11-09T00:03:59;95591.22;;;13.81;65.31
22257;BME280;11297;42.686;23.374;2022-11-09T00:06:25;95585.56;;;13.79;65.25
22257;BME280;11297;42.686;23.374;2022-11-09T00:08:51;95588.47;;;13.78;65.18
22257;BME280;11297;42.686;23.374;2022-11-09T00:11:17;95591.50;;;13.71;66.16
22257;BME280;11297;42.686;23.374;2022-11-09T00:13:43;95591.97;;;13.65;65.74
22257;BME280;11297;42.686;23.374;2022-11-09T00:16:16;95584.88;;;13.57;65.67
22257;BME280;11297;42.686;23.374;2022-11-09T00:18:43;95589.16;;;13.53;65.75
22257;BME280;11297;42.686;23.374;2022-11-09T00:21:22;95582.69;;;13.50;65.54
22257;BME280;11297;42.686;23.374;2022-11-09T00:23:48;95590.22;;;13.52;65.69
22257;BME280;11297;42.686;23.374;2022-11-09T00:26:15;95572.31;;;13.20;65.65
22257;BME280;11297;42.686;23.374;2022-11-09T00:28:41;95588.47;;;13.31;65.93
22257;BME280;11297;42.686;23.374;2022-11-09T00:31:13;95595.03;;;13.20;66.59
22257;BME280;11297;42.686;23.374;2022-11-09T00:33:38;95573.91;;;12.99;66.86
22257;BME280;11297;42.686;23.374;2022-11-09T00:36:05;95589.75;;;13.11;67.61
22257;BME280;11297;42.686;23.374;2022-11-09T00:38:33;95585.91;;;13.09;68.54
22257;BME280;11297;42.686;23.374;2022-11-09T00:41:03;95578.53;;;13.02;68.90
22257;BME280;11297;42.686;23.374;2022-11-09T00:43:29;95587.00;;;13.08;68.71
22257;BME280;11297;42.686;23.374;2022-11-09T00:45:55;95586.72;;;13.18;68.19
22257;BME280;11297;42.686;23.374;2022-11-09T00:48:20;95578.28;;;13.21;68.15
22257;BME280;11297;42.686;23.374;2022-11-09T00:50:53;95586.63;;;13.31;67.96
22257;BME280;11297;42.686;23.374;2022-11-09T00:53:20;95586.00;;;13.34;67.92
22257;BME280;11297;42.686;23.374;2022-11-09T00:58:19;95579.38;;;13.28;67.88
22257;BME280;11297;42.686;23.374;2022-11-09T01:00:45;95579.53;;;13.23;68.05
22257;BME280;11297;42.686;23.374;2022-11-09T01:03:10;95575.34;;;13.14;68.32
22257;BME280;11297;42.686;23.374;2022-11-09T01:05:39;95571.66;;;13.06;68.53
22257;BME280;11297;42.686;23.374;2022-11-09T01:08:05;95581.78;;;13.08;68.78
22257;BME280;11297;42.686;23.374;2022-11-09T01:10:31;95583.28;;;13.09;68.79
22257;BME280;11297;42.686;23.374;2022-11-09T01:12:56;95580.69;;;13.09;68.85
22257;BME280;11297;42.686;23.374;2022-11-09T01:15:22;95563.63;;;12.94;68.69
22257;BME280;11297;42.686;23.374;2022-11-09T01:17:47;95582.84;;;13.07;69.00
22257;BME280;11297;42.686;23.374;2022-11-09T01:20:14;95576.50;;;12.99;69.20
22257;BME280;11297;42.686;23.374;2022-11-09T01:22:40;95579.13;;;12.99;69.46
22257;BME280;11297;42.686;23.374;2022-11-09T01:25:06;95582.84;;;13.07;69.89
22257;BME280;11297;42.686;23.374;2022-11-09T01:27:32;95570.69;;;13.02;70.08
22257;BME280;11297;42.686;23.374;2022-11-09T01:29:57;95581.78;;;13.16;69.87
22257;BME280;11297;42.686;23.374;2022-11-09T01:32:22;95585.34;;;13.20;70.03
22257;BME280;11297;42.686;23.374;2022-11-09T01:34:48;95558.00;;;13.09;70.21
22257;BME280;11297;42.686;23.374;2022-11-09T01:37:13;95582.00;;;13.28;69.90
22257;BME280;11297;42.686;23.374;2022-11-09T01:39:39;95574.16;;;13.28;69.83
22257;BME280;11297;42.686;23.374;2022-11-09T01:42:04;95571.25;;;13.30;70.06
22257;BME280;11297;42.686;23.374;2022-11-09T01:44:30;95567.75;;;13.34;69.95
22257;BME280;11297;42.686;23.374;2022-11-09T01:47:02;95574.84;;;13.42;70.02
22257;BME280;11297;42.686;23.374;2022-11-09T01:51:58;95570.59;;;13.54;69.68
22257;BME280;11297;42.686;23.374;2022-11-09T01:54:29;95555.22;;;13.53;69.48
22257;BME280;11297;42.686;23.374;2022-11-09T01:57:00;95564.00;;;13.65;69.29
22257;BME280;11297;42.686;23.374;2022-11-09T01:59:29;95572.47;;;13.71;69.00
22257;BME280;11297;42.686;23.374;2022-11-09T02:01:59;95566.59;;;13.57;69.59
22257;BME280;11297;42.686;23.374;2022-11-09T02:04:32;95568.31;;;13.61;69.61
22257;BME280;11297;42.686;23.374;2022-11-09T02:07:00;95563.69;;;13.58;69.21
22257;BME280;11297;42.686;23.374;2022-11-09T02:09:37;95575.69;;;13.68;68.93
22257;BME280;11297;42.686;23.374;2022-11-09T02:12:05;95572.31;;;13.67;68.50
22257;BME280;11297;42.686;23.374;2022-11-09T02:14:32;95578.28;;;13.68;69.10
22257;BME280;11297;42.686;23.374;2022-11-09T02:16:59;95568.16;;;13.66;69.14
22257;BME280;11297;42.686;23.374;2022-11-09T02:19:26;95578.59;;;13.66;68.33
22257;BME280;11297;42.686;23.374;2022-11-09T02:21:51;95586.28;;;13.71;67.83
22257;BME280;11297;42.686;23.374;2022-11-09T02:24:17;95580.31;;;13.71;67.64
22257;BME280;11297;42.686;23.374;2022-11-09T02:26:51;95575.53;;;13.73;67.68
22257;BME280;11297;42.686;23.374;2022-11-09T02:29:22;95586.47;;;13.75;67.50
22257;BME280;11297;42.686;23.374;2022-11-09T02:31:52;95549.84;;;13.49;67.70
22257;BME280;11297;42.686;23.374;2022-11-09T02:34:20;95580.44;;;13.74;67.57
22257;BME280;11297;42.686;23.374;2022-11-09T02:36:46;95589.97;;;13.70;67.53
22257;BME280;11297;42.686;23.374;2022-11-09T02:39:13;95585.78;;;13.61;67.73
22257;BME280;11297;42.686;23.374;2022-11-09T02:41:46;95582.13;;;13.62;68.01
22257;BME280;11297;42.686;23.374;2022-11-09T02:44:15;95584.56;;;13.58;68.19
22257;BME280;11297;42.686;23.374;2022-11-09T02:46:41;95582.72;;;13.59;68.52
22257;BME280;11297;42.686;23.374;2022-11-09T02:49:06;95583.47;;;13.59;68.30
22257;BME280;11297;42.686;23.374;2022-11-09T02:51:32;95589.19;;;13.61;68.18
22257;BME280;11297;42.686;23.374;2022-11-09T02:53:57;95591.81;;;13.61;68.07
22257;BME280;11297;42.686;23.374;2022-11-09T02:56:23;95579.47;;;13.53;68.43
22257;BME280;11297;42.686;23.374;2022-11-09T02:58:48;95584.44;;;13.63;68.30
22257;BME280;11297;42.686;23.374;2022-11-09T03:01:14;95582.28;;;13.65;68.63
22257;BME280;11297;42.686;23.374;2022-11-09T03:03:39;95587.69;;;13.69;68.36
22257;BME280;11297;42.686;23.374;2022-11-09T03:06:05;95590.75;;;13.71;68.47
22257;BME280;11297;42.686;23.374;2022-11-09T03:08:30;95589.34;;;13.65;68.61
22257;BME280;11297;42.686;23.374;2022-11-09T03:11:00;95578.25;;;13.59;68.68
22257;BME280;11297;42.686;23.374;2022-11-09T03:13:26;95580.91;;;13.68;68.55
22257;BME280;11297;42.686;23.374;2022-11-09T03:15:51;95589.84;;;13.75;68.41
22257;BME280;11297;42.686;23.374;2022-11-09T03:18:17;95584.91;;;13.74;67.96
22257;BME280;11297;42.686;23.374;2022-11-09T03:20:42;95587.97;;;13.76;67.59
22257;BME280;11297;42.686;23.374;2022-11-09T03:23:07;95588.78;;;13.76;67.36
22257;BME280;11297;42.686;23.374;2022-11-09T03:25:35;95596.28;;;13.78;68.02
22257;BME280;11297;42.686;23.374;2022-11-09T03:28:03;95584.47;;;13.72;67.47
22257;BME280;11297;42.686;23.374;2022-11-09T03:30:29;95583.66;;;13.71;67.21
22257;BME280;11297;42.686;23.374;2022-11-09T03:33:02;95586.88;;;13.68;67.02
22257;BME280;11297;42.686;23.374;2022-11-09T03:35:27;95589.03;;;13.66;67.30
22257;BME280;11297;42.686;23.374;2022-11-09T03:37:53;95588.09;;;13.54;66.99
22257;BME280;11297;42.686;23.374;2022-11-09T03:40:19;95593.63;;;13.52;66.72
22257;BME280;11297;42.686;23.374;2022-11-09T03:42:45;95582.09;;;13.45;67.25
22257;BME280;11297;42.686;23.374;2022-11-09T03:45:12;95601.16;;;13.54;67.20
22257;BME280;11297;42.686;23.374;2022-11-09T03:47:41;95598.25;;;13.55;67.05
22257;BME280;11297;42.686;23.374;2022-11-09T03:50:08;95602.66;;;13.55;66.75
22257;BME280;11297;42.686;23.374;2022-11-09T03:52:34;95597.75;;;13.53;66.55
22257;BME280;11297;42.686;23.374;2022-11-09T03:55:00;95603.16;;;13.57;66.53
22257;BME280;11297;42.686;23.374;2022-11-09T03:57:25;95584.38;;;13.46;66.74
22257;BME280;11297;42.686;23.374;2022-11-09T03:59:51;95602.06;;;13.58;66.46
22257;BME280;11297;42.686;23.374;2022-11-09T04:02:16;95603.31;;;13.60;66.71
22257;BME280;11297;42.686;23.374;2022-11-09T04:04:41;95601.75;;;13.59;66.62
22257;BME280;11297;42.686;23.374;2022-11-09T04:07:09;95591.72;;;13.36;66.51
22257;BME280;11297;42.686;23.374;2022-11-09T04:09:35;95603.66;;;13.29;66.92
22257;BME280;11297;42.686;23.374;2022-11-09T04:12:00;95599.19;;;13.29;67.22
22257;BME280;11297;42.686;23.374;2022-11-09T04:14:25;95603.66;;;13.29;66.89
22257;BME280;11297;42.686;23.374;2022-11-09T04:16:51;95600.56;;;13.27;67.09
22257;BME280;11297;42.686;23.374;2022-11-09T04:19:17;95592.13;;;13.21;67.18
22257;BME280;11297;42.686;23.374;2022-11-09T04:21:42;95603.97;;;13.27;67.13
22257;BME280;11297;42.686;23.374;2022-11-09T04:24:07;95597.50;;;13.25;67.00
22257;BME280;11297;42.686;23.374;2022-11-09T04:26:33;95596.75;;;13.24;66.99
22257;BME280;11297;42.686;23.374;2022-11-09T04:28:58;95597.50;;;13.25;67.21
22257;BME280;11297;42.686;23.374;2022-11-09T04:31:24;95599.03;;;13.26;66.95
22257;BME280;11297;42.686;23.374;2022-11-09T04:33:49;95589.66;;;13.25;66.92
22257;BME280;11297;42.686;23.374;2022-11-09T04:36:16;95601.06;;;13.29;67.47
22257;BME280;11297;42.686;23.374;2022-11-09T04:38:41;95593.09;;;13.34;69.52
22257;BME280;11297;42.686;23.374;2022-11-09T04:41:07;95594.94;;;13.33;67.65
22257;BME280;11297;42.686;23.374;2022-11-09T04:43:33;95584.44;;;13.25;66.97
22257;BME280;11297;42.686;23.374;2022-11-09T04:45:59;95585.50;;;13.24;67.03
22257;BME280;11297;42.686;23.374;2022-11-09T04:48:25;95603.81;;;13.32;66.99
22257;BME280;11297;42.686;23.374;2022-11-09T04:50:50;95595.34;;;13.27;66.59
22257;BME280;11297;42.686;23.374;2022-11-09T04:53:16;95609.63;;;13.29;66.65
22257;BME280;11297;42.686;23.374;2022-11-09T04:55:42;95609.19;;;13.27;66.73
22257;BME280;11297;42.686;23.374;2022-11-09T04:58:07;95609.34;;;13.31;67.07
22257;BME280;11297;42.686;23.374;2022-11-09T05:00:33;95619.47;;;13.32;67.36
22257;BME280;11297;42.686;23.374;2022-11-09T05:03:04;95619.03;;;13.38;71.70
22257;BME280;11297;42.686;23.374;2022-11-09T05:05:31;95616.72;;;13.37;68.24
22257;BME280;11297;42.686;23.374;2022-11-09T05:07:57;95613.19;;;13.33;67.53
22257;BME280;11297;42.686;23.374;2022-11-09T05:10:22;95620.03;;;13.51;76.80
22257;BME280;11297;42.686;23.374;2022-11-09T05:12:48;95617.50;;;13.76;74.08
22257;BME280;11297;42.686;23.374;2022-11-09T05:15:13;95615.91;;;15.35;97.97
22257;BME280;11297;42.686;23.374;2022-11-09T05:17:39;95621.03;;;16.26;96.89
22257;BME280;11297;42.686;23.374;2022-11-09T05:20:04;95614.75;;;16.59;82.23
22257;BME280;11297;42.686;23.374;2022-11-09T05:22:30;95621.47;;;16.28;64.53
22257;BME280;11297;42.686;23.374;2022-11-09T05:25:14;95622.38;;;16.03;60.98
22257;BME280;11297;42.686;23.374;2022-11-09T05:27:39;95622.34;;;15.83;60.00
22257;BME280;11297;42.686;23.374;2022-11-09T05:30:05;95622.59;;;15.61;59.87
22257;BME280;11297;42.686;23.374;2022-11-09T05:32:31;95630.84;;;15.43;60.29
22257;BME280;11297;42.686;23.374;2022-11-09T05:34:56;95632.91;;;15.66;78.51
22257;BME280;11297;42.686;23.374;2022-11-09T05:37:22;95616.34;;;16.31;87.12
22257;BME280;11297;42.686;23.374;2022-11-09T05:39:47;95627.41;;;17.10;81.85
22257;BME280;11297;42.686;23.374;2022-11-09T05:42:13;95625.50;;;16.98;63.67
22257;BME280;11297;42.686;23.374;2022-11-09T05:44:38;95635.19;;;17.06;60.90
22257;BME280;11297;42.686;23.374;2022-11-09T05:47:04;95627.25;;;16.94;56.79
22257;BME280;11297;42.686;23.374;2022-11-09T05:49:29;95630.94;;;16.81;58.80
22257;BME280;11297;42.686;23.374;2022-11-09T05:51:55;95641.09;;;16.83;57.38
22257;BME280;11297;42.686;23.374;2022-11-09T05:54:20;95632.59;;;16.66;55.62
22257;BME280;11297;42.686;23.374;2022-11-09T05:56:45;95646.38;;;16.42;56.30
22257;BME280;11297;42.686;23.374;2022-11-09T05:59:11;95645.19;;;16.03;57.31
22257;BME280;11297;42.686;23.374;2022-11-09T06:01:36;95649.31;;;15.83;57.83
22257;BME280;11297;42.686;23.374;2022-11-09T06:04:02;95654.25;;;15.48;59.42
22257;BME280;11297;42.686;23.374;2022-11-09T06:06:27;95655.22;;;15.27;60.22
22257;BME280;11297;42.686;23.374;2022-11-09T06:08:54;95656.31;;;15.00;61.92
22257;BME280;11297;42.686;23.374;2022-11-09T06:11:20;95663.56;;;14.78;63.02
22257;BME280;11297;42.686;23.374;2022-11-09T06:13:45;95665.28;;;14.74;62.80
22257;BME280;11297;42.686;23.374;2022-11-09T06:16:11;95662.81;;;14.52;64.87
22257;BME280;11297;42.686;23.374;2022-11-09T06:18:36;95665.09;;;14.20;66.54
22257;BME280;11297;42.686;23.374;2022-11-09T06:21:03;95671.25;;;14.24;66.18
22257;BME280;11297;42.686;23.374;2022-11-09T06:23:30;95657.84;;;14.17;65.86
22257;BME280;11297;42.686;23.374;2022-11-09T06:25:57;95663.41;;;14.24;67.20
22257;BME280;11297;42.686;23.374;2022-11-09T06:28:22;95672.97;;;14.37;66.51
22257;BME280;11297;42.686;23.374;2022-11-09T06:30:48;95669.28;;;14.63;65.92
22257;BME280;11297;42.686;23.374;2022-11-09T06:33:13;95665.75;;;14.76;65.80
22257;BME280;11297;42.686;23.374;2022-11-09T06:35:39;95655.56;;;15.00;64.45
22257;BME280;11297;42.686;23.374;2022-11-09T06:38:04;95667.31;;;15.48;63.23
22257;BME280;11297;42.686;23.374;2022-11-09T06:40:30;95662.75;;;15.74;62.51
22257;BME280;11297;42.686;23.374;2022-11-09T06:42:59;95667.22;;;16.10;60.27
22257;BME280;11297;42.686;23.374;2022-11-09T06:45:25;95661.97;;;16.39;59.72
22257;BME280;11297;42.686;23.374;2022-11-09T06:47:55;95657.91;;;16.50;58.99
22257;BME280;11297;42.686;23.374;2022-11-09T06:50:21;95656.78;;;16.91;57.19
22257;BME280;11297;42.686;23.374;2022-11-09T06:52:46;95660.66;;;17.38;55.57
22257;BME280;11297;42.686;23.374;2022-11-09T06:55:12;95654.16;;;17.79;53.87
22257;BME280;11297;42.686;23.374;2022-11-09T06:57:37;95663.38;;;18.09;53.18
22257;BME280;11297;42.686;23.374;2022-11-09T07:00:04;95666.09;;;18.36;52.19
22257;BME280;11297;42.686;23.374;2022-11-09T07:02:30;95653.41;;;18.77;50.58
22257;BME280;11297;42.686;23.374;2022-11-09T07:04:55;95655.41;;;18.96;49.35
22257;BME280;11297;42.686;23.374;2022-11-09T07:07:21;95663.75;;;18.98;49.42
22257;BME280;11297;42.686;23.374;2022-11-09T07:09:46;95656.34;;;19.15;48.67
22257;BME280;11297;42.686;23.374;2022-11-09T07:12:12;95656.06;;;19.32;48.49
22257;BME280;11297;42.686;23.374;2022-11-09T07:14:37;95652.75;;;19.65;47.19
22257;BME280;11297;42.686;23.374;2022-11-09T07:17:02;95642.06;;;19.89;46.60
22257;BME280;11297;42.686;23.374;2022-11-09T07:19:28;95657.97;;;20.08;46.18
22257;BME280;11297;42.686;23.374;2022-11-09T07:21:55;95647.34;;;20.39;45.67
22257;BME280;11297;42.686;23.374;2022-11-09T07:24:21;95659.16;;;20.45;45.30
22257;BME280;11297;42.686;23.374;2022-11-09T07:26:47;95648.00;;;20.51;53.69
22257;BME280;11297;42.686;23.374;2022-11-09T07:29:13;95649.09;;;20.84;50.82
22257;BME280;11297;42.686;23.374;2022-11-09T07:31:38;95649.91;;;21.26;47.75
22257;BME280;11297;42.686;23.374;2022-11-09T07:34:04;95644.53;;;21.60;47.96
22257;BME280;11297;42.686;23.374;2022-11-09T07:36:30;95637.59;;;21.74;45.14
22257;BME280;11297;42.686;23.374;2022-11-09T07:38:57;95640.91;;;22.16;48.96
22257;BME280;11297;42.686;23.374;2022-11-09T07:41:22;95644.22;;;22.61;47.79
22257;BME280;11297;42.686;23.374;2022-11-09T07:43:48;95640.41;;;22.91;43.10
22257;BME280;11297;42.686;23.374;2022-11-09T07:46:14;95648.22;;;23.07;44.71
22257;BME280;11297;42.686;23.374;2022-11-09T07:48:40;95642.84;;;23.36;42.68
22257;BME280;11297;42.686;23.374;2022-11-09T07:51:05;95635.00;;;23.46;41.20
22257;BME280;11297;42.686;23.374;2022-11-09T07:53:31;95639.38;;;23.64;40.67
22257;BME280;11297;42.686;23.374;2022-11-09T07:55:57;95644.56;;;23.54;42.28
22257;BME280;11297;42.686;23.374;2022-11-09T07:58:23;95642.69;;;23.22;41.33
22257;BME280;11297;42.686;23.374;2022-11-09T08:00:48;95634.69;;;23.54;42.36
22257;BME280;11297;42.686;23.374;2022-11-09T08:03:14;95641.06;;;23.86;41.51
22257;BME280;11297;42.686;23.374;2022-11-09T08:05:39;95640.63;;;23.77;40.25
22257;BME280;11297;42.686;23.374;2022-11-09T08:08:08;95637.53;;;24.15;43.23
22257;BME280;11297;42.686;23.374;2022-11-09T08:10:35;95636.66;;;24.51;41.47
22257;BME280;11297;42.686;23.374;2022-11-09T08:13:04;95636.34;;;24.62;40.56
22257;BME280;11297;42.686;23.374;2022-11-09T08:15:31;95639.38;;;24.68;42.07
22257;BME280;11297;42.686;23.374;2022-11-09T08:18:01;95633.84;;;25.01;37.82
22257;BME280;11297;42.686;23.374;2022-11-09T08:20:27;95639.38;;;24.68;38.72
22257;BME280;11297;42.686;23.374;2022-11-09T08:22:52;95642.16;;;24.92;39.84
22257;BME280;11297;42.686;23.374;2022-11-09T08:25:18;95646.47;;;25.17;39.76
22257;BME280;11297;42.686;23.374;2022-11-09T08:27:43;95644.25;;;25.57;39.70
22257;BME280;11297;42.686;23.374;2022-11-09T08:30:12;95641.28;;;25.69;36.45
22257;BME280;11297;42.686;23.374;2022-11-09T08:32:39;95634.72;;;25.36;36.76
22257;BME280;11297;42.686;23.374;2022-11-09T08:35:05;95630.63;;;25.76;40.05
22257;BME280;11297;42.686;23.374;2022-11-09T08:37:33;95632.94;;;26.05;37.41
22257;BME280;11297;42.686;23.374;2022-11-09T08:39:58;95638.25;;;25.98;37.15
22257;BME280;11297;42.686;23.374;2022-11-09T08:42:24;95632.91;;;26.12;38.60
22257;BME280;11297;42.686;23.374;2022-11-09T08:44:49;95638.22;;;26.50;36.12
22257;BME280;11297;42.686;23.374;2022-11-09T08:47:14;95627.19;;;25.69;37.50
22257;BME280;11297;42.686;23.374;2022-11-09T08:49:40;95634.84;;;25.98;38.55
22257;BME280;11297;42.686;23.374;2022-11-09T08:52:08;95632.91;;;26.09;35.74
22257;BME280;11297;42.686;23.374;2022-11-09T08:54:35;95626.44;;;25.65;37.42
22257;BME280;11297;42.686;23.374;2022-11-09T08:57:00;95609.94;;;25.11;38.06
22257;BME280;11297;42.686;23.374;2022-11-09T08:59:26;95630.59;;;23.60;39.87
22257;BME280;11297;42.686;23.374;2022-11-09T09:01:51;95639.22;;;23.90;40.66
22257;BME280;11297;42.686;23.374;2022-11-09T09:04:16;95637.22;;;24.94;40.31
22257;BME280;11297;42.686;23.374;2022-11-09T09:06:42;95631.72;;;25.51;36.54
22257;BME280;11297;42.686;23.374;2022-11-09T09:09:07;95631.81;;;24.73;38.61
22257;BME280;11297;42.686;23.374;2022-11-09T09:11:32;95629.09;;;24.59;38.92
22257;BME280;11297;42.686;23.374;2022-11-09T09:13:58;95628.81;;;24.21;38.93
22257;BME280;11297;42.686;23.374;2022-11-09T09:16:23;95628.91;;;23.82;39.44
22257;BME280;11297;42.686;23.374;2022-11-09T09:18:49;95631.03;;;24.09;41.30
22257;BME280;11297;42.686;23.374;2022-11-09T09:21:15;95631.41;;;24.11;39.85
22257;BME280;11297;42.686;23.374;2022-11-09T09:23:40;95617.09;;;24.29;40.00
22257;BME280;11297;42.686;23.374;2022-11-09T09:26:06;95623.41;;;24.61;38.91
22257;BME280;11297;42.686;23.374;2022-11-09T09:28:31;95621.44;;;25.46;40.15
22257;BME280;11297;42.686;23.374;2022-11-09T09:30:58;95623.75;;;26.27;38.35
22257;BME280;11297;42.686;23.374;2022-11-09T09:33:24;95621.72;;;27.00;36.88
22257;BME280;11297;42.686;23.374;2022-11-09T09:35:50;95611.03;;;27.68;36.63
22257;BME280;11297;42.686;23.374;2022-11-09T09:38:16;95609.47;;;27.74;33.56
22257;BME280;11297;42.686;23.374;2022-11-09T09:40:55;95607.84;;;27.30;33.10
22257;BME280;11297;42.686;23.374;2022-11-09T09:43:31;95614.28;;;26.30;34.46
22257;BME280;11297;42.686;23.374;2022-11-09T09:45:59;95589.50;;;26.15;34.98
22257;BME280;11297;42.686;23.374;2022-11-09T09:51:01;95607.03;;;26.37;37.56
22257;BME280;11297;42.686;23.374;2022-11-09T09:53:36;95592.03;;;26.81;37.31
22257;BME280;11297;42.686;23.374;2022-11-09T09:56:22;95602.28;;;26.97;34.57
22257;BME280;11297;42.686;23.374;2022-11-09T09:58:57;95584.22;;;26.08;35.28
22257;BME280;11297;42.686;23.374;2022-11-09T10:01:38;95585.59;;;25.02;36.62
22257;BME280;11297;42.686;23.374;2022-11-09T10:04:17;95588.94;;;24.85;37.67
22257;BME280;11297;42.686;23.374;2022-11-09T10:06:55;95588.31;;;25.16;38.46
22257;BME280;11297;42.686;23.374;2022-11-09T10:15:45;95576.63;;;25.97;38.26
22257;BME280;11297;42.686;23.374;2022-11-09T10:18:25;95576.84;;;26.68;37.62
22257;BME280;11297;42.686;23.374;2022-11-09T10:21:10;95574.75;;;27.17;34.37
22257;BME280;11297;42.686;23.374;2022-11-09T10:23:52;95569.91;;;26.91;33.59
22257;BME280;11297;42.686;23.374;2022-11-09T10:26:25;95561.69;;;26.48;35.76
22257;BME280;11297;42.686;23.374;2022-11-09T10:29:00;95563.63;;;26.37;34.36
22257;BME280;11297;42.686;23.374;2022-11-09T10:31:30;95552.84;;;26.68;38.84
22257;BME280;11297;42.686;23.374;2022-11-09T10:34:07;95560.16;;;27.28;39.74
22257;BME280;11297;42.686;23.374;2022-11-09T10:36:43;95562.34;;;27.54;36.64
22257;BME280;11297;42.686;23.374;2022-11-09T10:39:13;95540.06;;;27.17;34.13
22257;BME280;11297;42.686;23.374;2022-11-09T10:41:41;95555.09;;;26.80;36.94
22257;BME280;11297;42.686;23.374;2022-11-09T10:44:17;95560.66;;;25.76;36.77
22257;BME280;11297;42.686;23.374;2022-11-09T10:47:08;95544.69;;;25.65;38.38
22257;BME280;11297;42.686;23.374;2022-11-09T10:49:35;95551.66;;;24.68;41.27
22257;BME280;11297;42.686;23.374;2022-11-09T10:52:02;95548.41;;;25.16;38.90
22257;BME280;11297;42.686;23.374;2022-11-09T10:54:30;95530.19;;;25.52;38.25
22257;BME280;11297;42.686;23.374;2022-11-09T10:57:16;95535.53;;;25.80;37.61
22257;BME280;11297;42.686;23.374;2022-11-09T11:02:42;95513.13;;;26.91;39.60
22257;BME280;11297;42.686;23.374;2022-11-09T11:07:34;95527.53;;;27.07;39.56
22257;BME280;11297;42.686;23.374;2022-11-09T11:10:16;95518.25;;;27.29;37.70
22257;BME280;11297;42.686;23.374;2022-11-09T11:12:44;95529.53;;;27.50;38.04
22257;BME280;11297;42.686;23.374;2022-11-09T11:17:45;95514.31;;;27.40;36.66
22257;BME280;11297;42.686;23.374;2022-11-09T11:25:52;95517.94;;;26.24;40.84
22257;BME280;11297;42.686;23.374;2022-11-09T11:31:23;95509.66;;;25.39;39.28
22257;BME280;11297;42.686;23.374;2022-11-09T11:33:48;95511.56;;;25.39;39.55
22257;BME280;11297;42.686;23.374;2022-11-09T11:36:44;95489.13;;;25.26;38.30
22257;BME280;11297;42.686;23.374;2022-11-09T11:50:34;95496.59;;;24.61;45.34
22257;BME280;11297;42.686;23.374;2022-11-09T11:58:49;95488.81;;;24.22;40.08
22257;BME280;11297;42.686;23.374;2022-11-09T12:04:01;95492.53;;;24.03;42.30
22257;BME280;11297;42.686;23.374;2022-11-09T12:14:31;95491.19;;;24.37;45.66
22257;BME280;11297;42.686;23.374;2022-11-09T12:20:22;95487.34;;;24.31;45.80
22257;BME280;11297;42.686;23.374;2022-11-09T12:26:02;95487.25;;;24.14;45.00
22257;BME280;11297;42.686;23.374;2022-11-09T12:36:58;95473.66;;;24.26;46.10
22257;BME280;11297;42.686;23.374;2022-11-09T12:39:34;95469.13;;;24.30;44.47
22257;BME280;11297;42.686;23.374;2022-11-09T12:42:32;95469.47;;;24.18;43.65
22257;BME280;11297;42.686;23.374;2022-11-09T12:45:04;95461.41;;;23.97;42.97
22257;BME280;11297;42.686;23.374;2022-11-09T12:47:38;95465.06;;;23.75;41.77
22257;BME280;11297;42.686;23.374;2022-11-09T12:50:04;95470.31;;;23.65;43.13
22257;BME280;11297;42.686;23.374;2022-11-09T12:52:30;95467.31;;;23.73;43.30
22257;BME280;11297;42.686;23.374;2022-11-09T12:54:59;95461.97;;;23.66;38.93
22257;BME280;11297;42.686;23.374;2022-11-09T12:57:28;95466.97;;;23.75;45.70
22257;BME280;11297;42.686;23.374;2022-11-09T12:59:56;95448.31;;;23.64;40.68
22257;BME280;11297;42.686;23.374;2022-11-09T13:02:50;95463.72;;;23.49;43.10
22257;BME280;11297;42.686;23.374;2022-11-09T13:05:29;95462.53;;;23.43;38.76
22257;BME280;11297;42.686;23.374;2022-11-09T13:07:58;95457.06;;;23.22;40.49
22257;BME280;11297;42.686;23.374;2022-11-09T13:10:33;95451.56;;;22.98;39.61
22257;BME280;11297;42.686;23.374;2022-11-09T13:15:34;95446.63;;;22.60;41.76
22257;BME280;11297;42.686;23.374;2022-11-09T13:20:54;95455.53;;;22.42;40.78
22257;BME280;11297;42.686;23.374;2022-11-09T13:23:40;95452.13;;;22.41;40.09
22257;BME280;11297;42.686;23.374;2022-11-09T13:26:21;95456.22;;;22.35;42.11
22257;BME280;11297;42.686;23.374;2022-11-09T13:34:52;95455.91;;;22.44;43.88
22257;BME280;11297;42.686;23.374;2022-11-09T13:37:54;95457.41;;;22.41;43.73
22257;BME280;11297;42.686;23.374;2022-11-09T13:42:59;95460.47;;;22.43;44.50
22257;BME280;11297;42.686;23.374;2022-11-09T13:47:59;95461.47;;;22.32;46.04
22257;BME280;11297;42.686;23.374;2022-11-09T13:50:27;95463.38;;;22.35;43.66
22257;BME280;11297;42.686;23.374;2022-11-09T13:52:55;95463.47;;;22.42;42.47
22257;BME280;11297;42.686;23.374;2022-11-09T13:55:29;95459.41;;;22.51;41.22
22257;BME280;11297;42.686;23.374;2022-11-09T13:57:58;95458.66;;;22.51;44.78
22257;BME280;11297;42.686;23.374;2022-11-09T14:00:25;95454.94;;;22.58;41.84
22257;BME280;11297;42.686;23.374;2022-11-09T14:05:25;95452.00;;;22.67;42.57
22257;BME280;11297;42.686;23.374;2022-11-09T14:07:52;95448.25;;;22.71;42.52
22257;BME280;11297;42.686;23.374;2022-11-09T14:10:38;95448.25;;;22.71;39.21
22257;BME280;11297;42.686;23.374;2022-11-09T14:16:25;95442.25;;;22.38;39.50
22257;BME280;11297;42.686;23.374;2022-11-09T14:21:52;95451.50;;;21.93;40.32
22257;BME280;11297;42.686;23.374;2022-11-09T14:24:29;95449.34;;;21.72;40.37
22257;BME280;11297;42.686;23.374;2022-11-09T14:29:36;95454.50;;;21.40;40.90
22257;BME280;11297;42.686;23.374;2022-11-09T14:34:42;95458.19;;;21.10;41.62
22257;BME280;11297;42.686;23.374;2022-11-09T14:37:10;95452.69;;;20.96;41.91
22257;BME280;11297;42.686;23.374;2022-11-09T14:39:36;95450.16;;;20.80;42.17